Main page
METAR-TAF:

METAR-TAF

Airports :

Kuwait International Airport

Kuwait City, Kuwait

latitude: 29-13N, longitude: 047-59E, elevation: 55 m

Current weather observation

The report was made 34 minutes ago, at 22:00 UTC
Wind 15 kt from the North/Northwest
Temperature 39°C
Humidity 19%
Pressure 995 hPa
Visibility: 7000 m

METAR: OKBK 092200Z 34015KT 7000 NSC 39/11 Q0995 NOSIG

Time: 01:34 (22:34 UTC)

Forecast

The report was made 5 hours and 34 minutes ago, at 17:00 UTC
Forecast valid from 09 at 18 UTC to 10 at 24 UTC
Wind 15 kt from the North with gusts up to 25 kt
Visibility: 6000 m
Temporary
from 10 at 09 UTC to 10 at 15 UTC
Visibility: 3000 m
Blowing dust

TAF: OKBK 091700Z 0918/1024 35015G25KT 6000 NSC TEMPO 1009/1015 3000 BLDU

Weather observations and forecasts of more than 4000 airports (METAR and TAF reports).

The available stations are represented by yellow and red dots on the map.

Hover mouse over dot to see the name of the station.

Then click to see weather observations and forecasts.

To change the map : click on the green buttons with a black cross to zoom in, on the green button with a dash to zoom out, or on the green arrows for adjacent maps.


METAR-TAF: